sensor_id;sensor_type;location;lat;lon;timestamp;P1;durP1;ratioP1;P2;durP2;ratioP2
74269;SDS011;62754;48.252;11.654;2023-06-26T00:02:03;9.85;;;5.95;;
74269;SDS011;62754;48.252;11.654;2023-06-26T00:04:29;8.85;;;5.70;;
74269;SDS011;62754;48.252;11.654;2023-06-26T00:06:57;9.48;;;6.10;;
74269;SDS011;62754;48.252;11.654;2023-06-26T00:09:25;8.15;;;5.88;;
74269;SDS011;62754;48.252;11.654;2023-06-26T00:11:53;11.25;;;5.50;;
74269;SDS011;62754;48.252;11.654;2023-06-26T00:14:18;9.25;;;5.55;;
74269;SDS011;62754;48.252;11.654;2023-06-26T00:16:44;10.35;;;6.60;;
74269;SDS011;62754;48.252;11.654;2023-06-26T00:19:12;9.88;;;5.90;;
74269;SDS011;62754;48.252;11.654;2023-06-26T00:21:38;9.75;;;6.30;;
74269;SDS011;62754;48.252;11.654;2023-06-26T00:24:04;9.90;;;6.43;;
74269;SDS011;62754;48.252;11.654;2023-06-26T00:26:30;8.98;;;6.03;;
74269;SDS011;62754;48.252;11.654;2023-06-26T00:28:58;9.18;;;6.07;;
74269;SDS011;62754;48.252;11.654;2023-06-26T00:31:26;10.13;;;5.82;;
74269;SDS011;62754;48.252;11.654;2023-06-26T00:33:56;8.85;;;5.78;;
74269;SDS011;62754;48.252;11.654;2023-06-26T00:36:22;11.80;;;7.40;;
74269;SDS011;62754;48.252;11.654;2023-06-26T00:38:50;8.57;;;6.32;;
74269;SDS011;62754;48.252;11.654;2023-06-26T00:41:21;9.60;;;6.18;;
74269;SDS011;62754;48.252;11.654;2023-06-26T00:43:49;9.35;;;6.32;;
74269;SDS011;62754;48.252;11.654;2023-06-26T00:46:15;10.23;;;6.47;;
74269;SDS011;62754;48.252;11.654;2023-06-26T00:48:41;9.80;;;6.43;;
74269;SDS011;62754;48.252;11.654;2023-06-26T00:51:08;8.15;;;6.00;;
74269;SDS011;62754;48.252;11.654;2023-06-26T00:53:34;8.93;;;6.07;;
74269;SDS011;62754;48.252;11.654;2023-06-26T00:56:02;8.82;;;5.82;;
74269;SDS011;62754;48.252;11.654;2023-06-26T00:58:31;10.57;;;6.68;;
74269;SDS011;62754;48.252;11.654;2023-06-26T01:00:57;10.02;;;6.68;;
74269;SDS011;62754;48.252;11.654;2023-06-26T01:03:27;12.02;;;6.82;;
74269;SDS011;62754;48.252;11.654;2023-06-26T01:05:53;10.13;;;6.78;;
74269;SDS011;62754;48.252;11.654;2023-06-26T01:08:20;8.23;;;5.88;;
74269;SDS011;62754;48.252;11.654;2023-06-26T01:10:47;10.02;;;6.88;;
74269;SDS011;62754;48.252;11.654;2023-06-26T01:13:17;11.75;;;7.05;;
74269;SDS011;62754;48.252;11.654;2023-06-26T01:15:43;9.23;;;6.45;;
74269;SDS011;62754;48.252;11.654;2023-06-26T01:18:10;9.13;;;6.13;;
74269;SDS011;62754;48.252;11.654;2023-06-26T01:20:36;9.13;;;6.20;;
74269;SDS011;62754;48.252;11.654;2023-06-26T01:23:05;9.48;;;6.65;;
74269;SDS011;62754;48.252;11.654;2023-06-26T01:28:37;9.45;;;5.85;;
74269;SDS011;62754;48.252;11.654;2023-06-26T01:31:05;10.55;;;6.15;;
74269;SDS011;62754;48.252;11.654;2023-06-26T01:33:34;9.55;;;6.30;;
74269;SDS011;62754;48.252;11.654;2023-06-26T01:36:00;11.75;;;7.10;;
74269;SDS011;62754;48.252;11.654;2023-06-26T01:38:26;9.65;;;6.35;;
74269;SDS011;62754;48.252;11.654;2023-06-26T01:40:54;9.85;;;6.07;;
74269;SDS011;62754;48.252;11.654;2023-06-26T01:45:54;9.00;;;5.93;;
74269;SDS011;62754;48.252;11.654;2023-06-26T01:48:25;10.57;;;6.53;;
74269;SDS011;62754;48.252;11.654;2023-06-26T01:53:30;12.40;;;6.80;;
74269;SDS011;62754;48.252;11.654;2023-06-26T01:56:07;10.55;;;6.43;;
74269;SDS011;62754;48.252;11.654;2023-06-26T01:58:37;9.13;;;5.57;;
74269;SDS011;62754;48.252;11.654;2023-06-26T02:01:09;10.30;;;6.22;;
74269;SDS011;62754;48.252;11.654;2023-06-26T02:03:37;9.07;;;5.75;;
74269;SDS011;62754;48.252;11.654;2023-06-26T02:06:07;9.65;;;6.20;;
74269;SDS011;62754;48.252;11.654;2023-06-26T02:08:33;10.55;;;6.45;;
74269;SDS011;62754;48.252;11.654;2023-06-26T02:10:58;10.07;;;6.07;;
74269;SDS011;62754;48.252;11.654;2023-06-26T02:13:26;10.85;;;6.47;;
74269;SDS011;62754;48.252;11.654;2023-06-26T02:15:55;9.48;;;6.22;;
74269;SDS011;62754;48.252;11.654;2023-06-26T02:18:20;8.57;;;6.07;;
74269;SDS011;62754;48.252;11.654;2023-06-26T02:20:49;9.73;;;6.60;;
74269;SDS011;62754;48.252;11.654;2023-06-26T02:23:17;12.70;;;6.10;;
74269;SDS011;62754;48.252;11.654;2023-06-26T02:25:43;8.40;;;5.53;;
74269;SDS011;62754;48.252;11.654;2023-06-26T02:28:09;11.00;;;6.00;;
74269;SDS011;62754;48.252;11.654;2023-06-26T02:30:37;8.55;;;5.72;;
74269;SDS011;62754;48.252;11.654;2023-06-26T02:33:03;10.25;;;6.28;;
74269;SDS011;62754;48.252;11.654;2023-06-26T02:35:31;10.65;;;6.20;;
74269;SDS011;62754;48.252;11.654;2023-06-26T02:38:01;9.98;;;6.35;;
74269;SDS011;62754;48.252;11.654;2023-06-26T02:40:29;9.55;;;6.43;;
74269;SDS011;62754;48.252;11.654;2023-06-26T02:42:55;11.40;;;6.30;;
74269;SDS011;62754;48.252;11.654;2023-06-26T02:45:20;10.55;;;6.45;;
74269;SDS011;62754;48.252;11.654;2023-06-26T02:47:48;11.32;;;6.65;;
74269;SDS011;62754;48.252;11.654;2023-06-26T02:50:14;10.25;;;6.15;;
74269;SDS011;62754;48.252;11.654;2023-06-26T02:52:40;10.57;;;6.78;;
74269;SDS011;62754;48.252;11.654;2023-06-26T02:55:09;11.52;;;6.43;;
74269;SDS011;62754;48.252;11.654;2023-06-26T02:57:37;9.95;;;6.80;;
74269;SDS011;62754;48.252;11.654;2023-06-26T03:00:05;9.75;;;6.13;;
74269;SDS011;62754;48.252;11.654;2023-06-26T03:02:36;10.15;;;6.68;;
74269;SDS011;62754;48.252;11.654;2023-06-26T03:05:04;11.90;;;7.00;;
74269;SDS011;62754;48.252;11.654;2023-06-26T03:07:33;10.80;;;6.88;;
74269;SDS011;62754;48.252;11.654;2023-06-26T03:09:58;10.20;;;6.97;;
74269;SDS011;62754;48.252;11.654;2023-06-26T03:12:24;11.07;;;6.68;;
74269;SDS011;62754;48.252;11.654;2023-06-26T03:14:53;12.60;;;6.82;;
74269;SDS011;62754;48.252;11.654;2023-06-26T03:17:24;12.13;;;6.90;;
74269;SDS011;62754;48.252;11.654;2023-06-26T03:19:50;10.50;;;6.45;;
74269;SDS011;62754;48.252;11.654;2023-06-26T03:22:18;10.70;;;6.97;;
74269;SDS011;62754;48.252;11.654;2023-06-26T03:24:44;11.27;;;6.80;;
74269;SDS011;62754;48.252;11.654;2023-06-26T03:27:12;12.05;;;6.88;;
74269;SDS011;62754;48.252;11.654;2023-06-26T03:29:40;10.25;;;7.10;;
74269;SDS011;62754;48.252;11.654;2023-06-26T03:32:08;9.88;;;6.93;;
74269;SDS011;62754;48.252;11.654;2023-06-26T03:34:36;12.15;;;6.55;;
74269;SDS011;62754;48.252;11.654;2023-06-26T03:37:02;10.00;;;6.50;;
74269;SDS011;62754;48.252;11.654;2023-06-26T03:39:28;9.10;;;6.38;;
74269;SDS011;62754;48.252;11.654;2023-06-26T03:41:56;9.85;;;6.43;;
74269;SDS011;62754;48.252;11.654;2023-06-26T03:44:23;9.95;;;6.63;;
74269;SDS011;62754;48.252;11.654;2023-06-26T03:46:52;10.80;;;6.25;;
74269;SDS011;62754;48.252;11.654;2023-06-26T03:49:17;9.98;;;5.72;;
74269;SDS011;62754;48.252;11.654;2023-06-26T03:51:43;10.23;;;6.65;;
74269;SDS011;62754;48.252;11.654;2023-06-26T03:54:09;11.13;;;7.07;;
74269;SDS011;62754;48.252;11.654;2023-06-26T03:56:40;9.60;;;6.50;;
74269;SDS011;62754;48.252;11.654;2023-06-26T03:59:06;10.27;;;6.65;;
74269;SDS011;62754;48.252;11.654;2023-06-26T04:01:31;10.02;;;6.97;;
74269;SDS011;62754;48.252;11.654;2023-06-26T04:04:03;10.18;;;6.53;;
74269;SDS011;62754;48.252;11.654;2023-06-26T04:06:31;10.63;;;6.55;;
74269;SDS011;62754;48.252;11.654;2023-06-26T04:08:57;9.02;;;5.97;;
74269;SDS011;62754;48.252;11.654;2023-06-26T04:11:23;9.88;;;6.68;;
74269;SDS011;62754;48.252;11.654;2023-06-26T04:13:50;12.05;;;6.68;;
74269;SDS011;62754;48.252;11.654;2023-06-26T04:16:15;10.23;;;6.57;;
74269;SDS011;62754;48.252;11.654;2023-06-26T04:18:44;10.63;;;6.30;;
74269;SDS011;62754;48.252;11.654;2023-06-26T04:21:10;11.32;;;6.63;;
74269;SDS011;62754;48.252;11.654;2023-06-26T04:23:38;10.15;;;6.75;;
74269;SDS011;62754;48.252;11.654;2023-06-26T04:26:05;9.43;;;6.53;;
74269;SDS011;62754;48.252;11.654;2023-06-26T04:31:03;8.88;;;6.05;;
74269;SDS011;62754;48.252;11.654;2023-06-26T04:33:29;10.07;;;6.18;;
74269;SDS011;62754;48.252;11.654;2023-06-26T04:35:57;11.57;;;6.35;;
74269;SDS011;62754;48.252;11.654;2023-06-26T04:38:25;9.20;;;6.25;;
74269;SDS011;62754;48.252;11.654;2023-06-26T04:40:51;9.35;;;6.20;;
74269;SDS011;62754;48.252;11.654;2023-06-26T04:43:19;9.07;;;6.28;;
74269;SDS011;62754;48.252;11.654;2023-06-26T04:45:47;10.48;;;6.63;;
74269;SDS011;62754;48.252;11.654;2023-06-26T04:48:13;9.30;;;6.05;;
74269;SDS011;62754;48.252;11.654;2023-06-26T04:50:41;10.10;;;6.20;;
74269;SDS011;62754;48.252;11.654;2023-06-26T04:53:09;8.93;;;6.18;;
74269;SDS011;62754;48.252;11.654;2023-06-26T04:55:39;8.68;;;5.57;;
74269;SDS011;62754;48.252;11.654;2023-06-26T04:58:05;9.70;;;6.43;;
74269;SDS011;62754;48.252;11.654;2023-06-26T05:00:33;10.70;;;6.40;;
74269;SDS011;62754;48.252;11.654;2023-06-26T05:02:59;10.50;;;6.38;;
74269;SDS011;62754;48.252;11.654;2023-06-26T05:05:25;9.55;;;5.90;;
74269;SDS011;62754;48.252;11.654;2023-06-26T05:07:53;10.00;;;6.40;;
74269;SDS011;62754;48.252;11.654;2023-06-26T05:10:21;9.35;;;6.13;;
74269;SDS011;62754;48.252;11.654;2023-06-26T05:12:49;13.10;;;5.72;;
74269;SDS011;62754;48.252;11.654;2023-06-26T05:15:17;10.15;;;6.10;;
74269;SDS011;62754;48.252;11.654;2023-06-26T05:17:46;9.43;;;5.70;;
74269;SDS011;62754;48.252;11.654;2023-06-26T05:20:14;11.02;;;6.32;;
74269;SDS011;62754;48.252;11.654;2023-06-26T05:22:42;10.52;;;5.43;;
74269;SDS011;62754;48.252;11.654;2023-06-26T05:25:10;10.15;;;6.20;;
74269;SDS011;62754;48.252;11.654;2023-06-26T05:30:02;9.52;;;5.38;;
74269;SDS011;62754;48.252;11.654;2023-06-26T05:32:28;9.73;;;5.70;;
74269;SDS011;62754;48.252;11.654;2023-06-26T05:34:59;8.05;;;5.43;;
74269;SDS011;62754;48.252;11.654;2023-06-26T05:37:27;9.57;;;5.88;;
74269;SDS011;62754;48.252;11.654;2023-06-26T05:39:56;9.40;;;6.20;;
74269;SDS011;62754;48.252;11.654;2023-06-26T05:42:24;9.93;;;5.50;;
74269;SDS011;62754;48.252;11.654;2023-06-26T05:44:51;8.73;;;5.63;;
74269;SDS011;62754;48.252;11.654;2023-06-26T05:47:19;8.80;;;6.22;;
74269;SDS011;62754;48.252;11.654;2023-06-26T05:49:47;10.45;;;6.72;;
74269;SDS011;62754;48.252;11.654;2023-06-26T05:52:15;10.73;;;6.70;;
74269;SDS011;62754;48.252;11.654;2023-06-26T05:54:41;8.63;;;5.97;;
74269;SDS011;62754;48.252;11.654;2023-06-26T05:57:07;10.45;;;6.38;;
74269;SDS011;62754;48.252;11.654;2023-06-26T05:59:33;9.63;;;5.90;;
74269;SDS011;62754;48.252;11.654;2023-06-26T06:02:05;9.30;;;6.15;;
74269;SDS011;62754;48.252;11.654;2023-06-26T06:04:33;10.43;;;6.50;;
74269;SDS011;62754;48.252;11.654;2023-06-26T06:07:03;8.90;;;6.00;;
74269;SDS011;62754;48.252;11.654;2023-06-26T06:09:32;8.52;;;5.90;;
74269;SDS011;62754;48.252;11.654;2023-06-26T06:11:58;8.10;;;5.68;;
74269;SDS011;62754;48.252;11.654;2023-06-26T06:16:52;11.48;;;6.85;;
74269;SDS011;62754;48.252;11.654;2023-06-26T06:19:22;10.23;;;6.43;;
74269;SDS011;62754;48.252;11.654;2023-06-26T06:21:48;12.07;;;6.00;;
74269;SDS011;62754;48.252;11.654;2023-06-26T06:24:14;10.52;;;6.68;;
74269;SDS011;62754;48.252;11.654;2023-06-26T06:26:42;10.50;;;6.57;;
74269;SDS011;62754;48.252;11.654;2023-06-26T06:29:10;11.13;;;6.50;;
74269;SDS011;62754;48.252;11.654;2023-06-26T06:31:38;10.85;;;6.60;;
74269;SDS011;62754;48.252;11.654;2023-06-26T06:34:04;10.38;;;6.70;;
74269;SDS011;62754;48.252;11.654;2023-06-26T06:36:32;9.55;;;6.43;;
74269;SDS011;62754;48.252;11.654;2023-06-26T06:38:58;10.88;;;5.97;;
74269;SDS011;62754;48.252;11.654;2023-06-26T06:41:24;12.27;;;6.32;;
74269;SDS011;62754;48.252;11.654;2023-06-26T06:43:49;9.40;;;6.32;;
74269;SDS011;62754;48.252;11.654;2023-06-26T06:46:20;9.10;;;6.25;;
74269;SDS011;62754;48.252;11.654;2023-06-26T06:48:48;9.32;;;6.38;;
74269;SDS011;62754;48.252;11.654;2023-06-26T06:51:16;11.63;;;5.47;;
74269;SDS011;62754;48.252;11.654;2023-06-26T06:53:44;8.90;;;5.65;;
74269;SDS011;62754;48.252;11.654;2023-06-26T06:56:09;7.15;;;5.00;;
74269;SDS011;62754;48.252;11.654;2023-06-26T06:58:35;6.85;;;4.72;;
74269;SDS011;62754;48.252;11.654;2023-06-26T07:01:03;7.63;;;5.10;;
74269;SDS011;62754;48.252;11.654;2023-06-26T07:03:31;7.93;;;5.28;;
74269;SDS011;62754;48.252;11.654;2023-06-26T07:05:57;8.05;;;5.05;;
74269;SDS011;62754;48.252;11.654;2023-06-26T07:08:23;8.57;;;5.07;;
74269;SDS011;62754;48.252;11.654;2023-06-26T07:10:51;7.30;;;4.88;;
74269;SDS011;62754;48.252;11.654;2023-06-26T07:13:17;9.05;;;5.22;;
74269;SDS011;62754;48.252;11.654;2023-06-26T07:15:42;7.18;;;4.65;;
74269;SDS011;62754;48.252;11.654;2023-06-26T07:18:10;7.35;;;5.00;;
74269;SDS011;62754;48.252;11.654;2023-06-26T07:20:38;7.93;;;4.63;;
74269;SDS011;62754;48.252;11.654;2023-06-26T07:23:04;6.80;;;4.57;;
74269;SDS011;62754;48.252;11.654;2023-06-26T07:25:30;7.38;;;4.85;;
74269;SDS011;62754;48.252;11.654;2023-06-26T07:27:56;7.05;;;4.95;;
74269;SDS011;62754;48.252;11.654;2023-06-26T07:30:24;7.40;;;4.88;;
74269;SDS011;62754;48.252;11.654;2023-06-26T07:32:49;7.70;;;5.05;;
74269;SDS011;62754;48.252;11.654;2023-06-26T07:37:43;7.20;;;4.57;;
74269;SDS011;62754;48.252;11.654;2023-06-26T07:40:11;6.40;;;4.80;;
74269;SDS011;62754;48.252;11.654;2023-06-26T07:42:39;7.15;;;4.80;;
74269;SDS011;62754;48.252;11.654;2023-06-26T07:45:05;6.97;;;4.60;;
74269;SDS011;62754;48.252;11.654;2023-06-26T07:47:31;7.47;;;5.05;;
74269;SDS011;62754;48.252;11.654;2023-06-26T07:50:02;6.32;;;5.00;;
74269;SDS011;62754;48.252;11.654;2023-06-26T07:52:27;9.20;;;5.40;;
74269;SDS011;62754;48.252;11.654;2023-06-26T07:57:19;6.25;;;4.50;;
74269;SDS011;62754;48.252;11.654;2023-06-26T08:02:12;7.65;;;5.22;;
74269;SDS011;62754;48.252;11.654;2023-06-26T08:04:41;7.63;;;5.10;;
74269;SDS011;62754;48.252;11.654;2023-06-26T08:09:34;7.45;;;5.25;;
74269;SDS011;62754;48.252;11.654;2023-06-26T08:12:02;7.63;;;5.45;;
74269;SDS011;62754;48.252;11.654;2023-06-26T08:16:56;7.25;;;5.50;;
74269;SDS011;62754;48.252;11.654;2023-06-26T08:19:22;8.80;;;4.95;;
74269;SDS011;62754;48.252;11.654;2023-06-26T08:21:47;7.95;;;5.13;;
74269;SDS011;62754;48.252;11.654;2023-06-26T08:24:13;7.30;;;5.82;;
74269;SDS011;62754;48.252;11.654;2023-06-26T08:26:45;6.13;;;4.85;;
74269;SDS011;62754;48.252;11.654;2023-06-26T08:29:11;7.32;;;5.43;;
74269;SDS011;62754;48.252;11.654;2023-06-26T08:31:40;7.65;;;5.18;;
74269;SDS011;62754;48.252;11.654;2023-06-26T08:34:11;6.63;;;5.03;;
74269;SDS011;62754;48.252;11.654;2023-06-26T08:36:36;7.40;;;5.20;;
74269;SDS011;62754;48.252;11.654;2023-06-26T08:39:05;7.88;;;5.20;;
74269;SDS011;62754;48.252;11.654;2023-06-26T08:41:33;7.40;;;5.00;;
74269;SDS011;62754;48.252;11.654;2023-06-26T08:43:59;6.60;;;5.00;;
74269;SDS011;62754;48.252;11.654;2023-06-26T08:46:25;6.97;;;4.88;;
74269;SDS011;62754;48.252;11.654;2023-06-26T08:49:00;6.53;;;4.78;;
74269;SDS011;62754;48.252;11.654;2023-06-26T08:51:28;7.93;;;4.93;;
74269;SDS011;62754;48.252;11.654;2023-06-26T08:53:59;6.68;;;5.32;;
74269;SDS011;62754;48.252;11.654;2023-06-26T08:56:36;6.95;;;4.55;;
74269;SDS011;62754;48.252;11.654;2023-06-26T08:59:07;6.13;;;4.85;;
74269;SDS011;62754;48.252;11.654;2023-06-26T09:01:36;8.75;;;5.28;;
74269;SDS011;62754;48.252;11.654;2023-06-26T09:04:06;6.55;;;4.65;;
74269;SDS011;62754;48.252;11.654;2023-06-26T09:06:32;8.57;;;5.00;;
74269;SDS011;62754;48.252;11.654;2023-06-26T09:08:58;6.18;;;4.75;;
74269;SDS011;62754;48.252;11.654;2023-06-26T09:11:24;6.97;;;5.00;;
74269;SDS011;62754;48.252;11.654;2023-06-26T09:13:49;6.35;;;4.13;;
74269;SDS011;62754;48.252;11.654;2023-06-26T09:16:16;6.35;;;4.60;;
74269;SDS011;62754;48.252;11.654;2023-06-26T09:18:51;6.60;;;4.80;;
74269;SDS011;62754;48.252;11.654;2023-06-26T09:21:17;6.22;;;4.53;;
74269;SDS011;62754;48.252;11.654;2023-06-26T09:23:49;8.13;;;4.95;;
74269;SDS011;62754;48.252;11.654;2023-06-26T09:26:17;7.03;;;4.75;;
74269;SDS011;62754;48.252;11.654;2023-06-26T09:28:46;8.13;;;4.55;;
74269;SDS011;62754;48.252;11.654;2023-06-26T09:31:19;7.22;;;4.45;;
74269;SDS011;62754;48.252;11.654;2023-06-26T09:33:48;5.20;;;4.07;;
74269;SDS011;62754;48.252;11.654;2023-06-26T09:36:20;7.10;;;4.75;;
74269;SDS011;62754;48.252;11.654;2023-06-26T09:38:46;5.55;;;4.43;;
74269;SDS011;62754;48.252;11.654;2023-06-26T09:41:14;5.57;;;3.85;;
74269;SDS011;62754;48.252;11.654;2023-06-26T09:43:49;6.45;;;4.55;;
74269;SDS011;62754;48.252;11.654;2023-06-26T09:48:50;5.82;;;4.25;;
74269;SDS011;62754;48.252;11.654;2023-06-26T09:51:22;5.43;;;4.13;;
74269;SDS011;62754;48.252;11.654;2023-06-26T09:53:50;6.38;;;3.67;;
74269;SDS011;62754;48.252;11.654;2023-06-26T09:56:18;5.90;;;4.25;;
74269;SDS011;62754;48.252;11.654;2023-06-26T09:58:47;5.50;;;3.83;;
74269;SDS011;62754;48.252;11.654;2023-06-26T10:01:13;5.60;;;4.10;;
74269;SDS011;62754;48.252;11.654;2023-06-26T10:03:39;5.85;;;4.10;;
74269;SDS011;62754;48.252;11.654;2023-06-26T10:06:05;5.20;;;3.88;;
74269;SDS011;62754;48.252;11.654;2023-06-26T10:08:32;6.10;;;4.00;;
74269;SDS011;62754;48.252;11.654;2023-06-26T10:10:59;6.93;;;4.32;;
74269;SDS011;62754;48.252;11.654;2023-06-26T10:13:31;6.45;;;4.22;;
74269;SDS011;62754;48.252;11.654;2023-06-26T10:16:00;5.65;;;4.43;;
74269;SDS011;62754;48.252;11.654;2023-06-26T10:18:28;4.82;;;3.92;;
74269;SDS011;62754;48.252;11.654;2023-06-26T10:20:58;5.13;;;4.00;;
74269;SDS011;62754;48.252;11.654;2023-06-26T10:23:26;5.75;;;4.10;;
74269;SDS011;62754;48.252;11.654;2023-06-26T10:25:53;4.75;;;3.85;;
74269;SDS011;62754;48.252;11.654;2023-06-26T10:28:23;7.47;;;4.35;;
74269;SDS011;62754;48.252;11.654;2023-06-26T10:30:50;6.13;;;4.07;;
74269;SDS011;62754;48.252;11.654;2023-06-26T10:33:17;5.40;;;4.25;;
74269;SDS011;62754;48.252;11.654;2023-06-26T10:35:45;6.13;;;4.22;;
74269;SDS011;62754;48.252;11.654;2023-06-26T10:38:11;6.20;;;4.10;;
74269;SDS011;62754;48.252;11.654;2023-06-26T10:40:41;7.78;;;4.05;;
74269;SDS011;62754;48.252;11.654;2023-06-26T10:43:13;6.20;;;4.13;;
74269;SDS011;62754;48.252;11.654;2023-06-26T10:45:49;4.82;;;3.78;;
74269;SDS011;62754;48.252;11.654;2023-06-26T10:48:19;6.47;;;3.63;;
74269;SDS011;62754;48.252;11.654;2023-06-26T10:50:49;6.47;;;4.03;;
74269;SDS011;62754;48.252;11.654;2023-06-26T10:56:01;6.22;;;4.32;;
74269;SDS011;62754;48.252;11.654;2023-06-26T11:06:26;5.32;;;4.43;;
74269;SDS011;62754;48.252;11.654;2023-06-26T11:08:59;5.72;;;4.00;;
74269;SDS011;62754;48.252;11.654;2023-06-26T11:14:21;5.53;;;4.05;;
74269;SDS011;62754;48.252;11.654;2023-06-26T11:16:53;5.00;;;3.72;;
74269;SDS011;62754;48.252;11.654;2023-06-26T11:19:21;5.20;;;3.80;;
74269;SDS011;62754;48.252;11.654;2023-06-26T11:21:47;4.93;;;3.80;;
74269;SDS011;62754;48.252;11.654;2023-06-26T11:24:15;6.22;;;4.10;;
74269;SDS011;62754;48.252;11.654;2023-06-26T11:26:42;5.82;;;4.03;;
74269;SDS011;62754;48.252;11.654;2023-06-26T11:29:10;6.55;;;4.05;;
74269;SDS011;62754;48.252;11.654;2023-06-26T11:31:39;4.78;;;3.92;;
74269;SDS011;62754;48.252;11.654;2023-06-26T11:36:32;5.90;;;4.20;;
74269;SDS011;62754;48.252;11.654;2023-06-26T11:39:04;5.68;;;3.88;;
74269;SDS011;62754;48.252;11.654;2023-06-26T11:41:34;6.55;;;3.90;;
74269;SDS011;62754;48.252;11.654;2023-06-26T11:44:01;5.30;;;4.53;;
74269;SDS011;62754;48.252;11.654;2023-06-26T11:46:27;5.97;;;4.22;;
74269;SDS011;62754;48.252;11.654;2023-06-26T11:48:56;7.32;;;4.22;;
74269;SDS011;62754;48.252;11.654;2023-06-26T11:51:22;6.43;;;4.68;;
74269;SDS011;62754;48.252;11.654;2023-06-26T11:53:48;6.25;;;4.70;;
74269;SDS011;62754;48.252;11.654;2023-06-26T11:56:15;6.32;;;4.38;;
74269;SDS011;62754;48.252;11.654;2023-06-26T12:01:38;5.63;;;4.20;;
74269;SDS011;62754;48.252;11.654;2023-06-26T12:04:11;5.88;;;4.35;;
74269;SDS011;62754;48.252;11.654;2023-06-26T12:06:39;6.25;;;4.38;;
74269;SDS011;62754;48.252;11.654;2023-06-26T12:09:08;6.25;;;5.05;;
74269;SDS011;62754;48.252;11.654;2023-06-26T12:11:35;6.28;;;4.05;;
74269;SDS011;62754;48.252;11.654;2023-06-26T12:14:03;5.30;;;3.80;;
74269;SDS011;62754;48.252;11.654;2023-06-26T12:16:33;6.38;;;4.60;;
74269;SDS011;62754;48.252;11.654;2023-06-26T12:19:02;6.43;;;4.53;;
74269;SDS011;62754;48.252;11.654;2023-06-26T12:24:07;5.40;;;4.80;;
74269;SDS011;62754;48.252;11.654;2023-06-26T12:26:33;5.30;;;4.35;;
74269;SDS011;62754;48.252;11.654;2023-06-26T12:29:06;6.35;;;4.68;;
74269;SDS011;62754;48.252;11.654;2023-06-26T12:31:39;6.13;;;4.40;;
74269;SDS011;62754;48.252;11.654;2023-06-26T12:34:09;6.25;;;4.47;;
74269;SDS011;62754;48.252;11.654;2023-06-26T12:36:39;7.57;;;4.63;;
74269;SDS011;62754;48.252;11.654;2023-06-26T12:39:09;5.60;;;4.30;;
74269;SDS011;62754;48.252;11.654;2023-06-26T12:41:43;7.07;;;5.13;;
74269;SDS011;62754;48.252;11.654;2023-06-26T12:44:19;5.93;;;4.30;;
74269;SDS011;62754;48.252;11.654;2023-06-26T12:46:53;5.47;;;4.20;;
74269;SDS011;62754;48.252;11.654;2023-06-26T12:49:30;6.55;;;4.40;;
74269;SDS011;62754;48.252;11.654;2023-06-26T12:51:56;5.57;;;4.10;;
74269;SDS011;62754;48.252;11.654;2023-06-26T12:54:27;6.38;;;4.50;;
74269;SDS011;62754;48.252;11.654;2023-06-26T12:56:56;5.57;;;4.82;;
74269;SDS011;62754;48.252;11.654;2023-06-26T12:59:24;5.95;;;4.40;;
74269;SDS011;62754;48.252;11.654;2023-06-26T13:01:54;5.03;;;4.28;;
74269;SDS011;62754;48.252;11.654;2023-06-26T13:04:20;5.28;;;4.38;;
74269;SDS011;62754;48.252;11.654;2023-06-26T13:06:48;5.95;;;4.25;;
74269;SDS011;62754;48.252;11.654;2023-06-26T13:09:18;7.90;;;4.68;;
74269;SDS011;62754;48.252;11.654;2023-06-26T13:11:46;5.30;;;4.45;;
74269;SDS011;62754;48.252;11.654;2023-06-26T13:14:17;10.27;;;5.20;;
74269;SDS011;62754;48.252;11.654;2023-06-26T13:16:42;6.03;;;4.82;;
74269;SDS011;62754;48.252;11.654;2023-06-26T13:19:11;6.30;;;4.32;;
74269;SDS011;62754;48.252;11.654;2023-06-26T13:21:37;8.90;;;5.38;;
74269;SDS011;62754;48.252;11.654;2023-06-26T13:24:05;5.80;;;4.70;;
74269;SDS011;62754;48.252;11.654;2023-06-26T13:26:31;5.63;;;4.43;;
74269;SDS011;62754;48.252;11.654;2023-06-26T13:29:00;6.97;;;4.65;;
74269;SDS011;62754;48.252;11.654;2023-06-26T13:31:28;10.02;;;5.40;;
74269;SDS011;62754;48.252;11.654;2023-06-26T13:33:56;8.73;;;4.80;;
74269;SDS011;62754;48.252;11.654;2023-06-26T13:36:23;6.63;;;5.22;;
74269;SDS011;62754;48.252;11.654;2023-06-26T13:38:51;8.68;;;5.60;;
74269;SDS011;62754;48.252;11.654;2023-06-26T13:41:19;8.15;;;5.00;;
74269;SDS011;62754;48.252;11.654;2023-06-26T13:43:45;9.30;;;5.38;;
74269;SDS011;62754;48.252;11.654;2023-06-26T13:46:12;6.95;;;5.07;;
74269;SDS011;62754;48.252;11.654;2023-06-26T13:48:38;5.85;;;4.75;;
74269;SDS011;62754;48.252;11.654;2023-06-26T13:51:04;6.60;;;4.63;;
74269;SDS011;62754;48.252;11.654;2023-06-26T13:53:32;6.57;;;4.22;;
74269;SDS011;62754;48.252;11.654;2023-06-26T13:56:00;6.88;;;4.75;;
74269;SDS011;62754;48.252;11.654;2023-06-26T13:58:26;6.60;;;4.63;;
74269;SDS011;62754;48.252;11.654;2023-06-26T14:00:54;6.55;;;4.55;;
74269;SDS011;62754;48.252;11.654;2023-06-26T14:03:20;6.97;;;4.75;;
74269;SDS011;62754;48.252;11.654;2023-06-26T14:05:46;6.97;;;4.78;;
74269;SDS011;62754;48.252;11.654;2023-06-26T14:08:12;8.13;;;4.78;;
74269;SDS011;62754;48.252;11.654;2023-06-26T14:10:40;6.40;;;4.25;;
74269;SDS011;62754;48.252;11.654;2023-06-26T14:13:06;7.32;;;4.68;;
74269;SDS011;62754;48.252;11.654;2023-06-26T14:15:32;7.55;;;4.47;;
74269;SDS011;62754;48.252;11.654;2023-06-26T14:18:00;5.57;;;4.05;;
74269;SDS011;62754;48.252;11.654;2023-06-26T14:20:28;7.70;;;4.78;;
74269;SDS011;62754;48.252;11.654;2023-06-26T14:22:56;5.45;;;4.30;;
74269;SDS011;62754;48.252;11.654;2023-06-26T14:25:22;5.53;;;4.28;;
74269;SDS011;62754;48.252;11.654;2023-06-26T14:27:48;6.50;;;4.22;;
74269;SDS011;62754;48.252;11.654;2023-06-26T14:30:16;7.88;;;4.18;;
74269;SDS011;62754;48.252;11.654;2023-06-26T14:32:46;6.55;;;4.90;;
74269;SDS011;62754;48.252;11.654;2023-06-26T14:35:17;7.82;;;4.63;;
74269;SDS011;62754;48.252;11.654;2023-06-26T14:37:45;5.45;;;4.22;;
74269;SDS011;62754;48.252;11.654;2023-06-26T14:40:10;6.57;;;4.72;;
74269;SDS011;62754;48.252;11.654;2023-06-26T14:42:39;6.75;;;4.07;;
74269;SDS011;62754;48.252;11.654;2023-06-26T14:45:05;6.85;;;4.65;;
74269;SDS011;62754;48.252;11.654;2023-06-26T14:47:31;6.85;;;4.57;;
74269;SDS011;62754;48.252;11.654;2023-06-26T14:49:57;6.75;;;4.68;;
74269;SDS011;62754;48.252;11.654;2023-06-26T14:52:25;6.72;;;4.40;;
74269;SDS011;62754;48.252;11.654;2023-06-26T14:54:50;6.78;;;4.43;;
74269;SDS011;62754;48.252;11.654;2023-06-26T14:57:16;6.45;;;4.07;;
74269;SDS011;62754;48.252;11.654;2023-06-26T14:59:44;6.65;;;4.80;;
74269;SDS011;62754;48.252;11.654;2023-06-26T15:02:12;7.22;;;5.25;;
74269;SDS011;62754;48.252;11.654;2023-06-26T15:04:40;7.85;;;5.03;;
74269;SDS011;62754;48.252;11.654;2023-06-26T15:07:06;6.47;;;4.55;;
74269;SDS011;62754;48.252;11.654;2023-06-26T15:09:32;7.60;;;4.72;;
74269;SDS011;62754;48.252;11.654;2023-06-26T15:12:00;6.25;;;4.70;;
74269;SDS011;62754;48.252;11.654;2023-06-26T15:14:28;6.80;;;4.63;;
74269;SDS011;62754;48.252;11.654;2023-06-26T15:16:58;6.35;;;4.55;;
74269;SDS011;62754;48.252;11.654;2023-06-26T15:19:24;5.43;;;4.50;;
74269;SDS011;62754;48.252;11.654;2023-06-26T15:21:52;6.45;;;4.88;;
74269;SDS011;62754;48.252;11.654;2023-06-26T15:24:18;6.55;;;5.03;;
74269;SDS011;62754;48.252;11.654;2023-06-26T15:26:46;8.02;;;4.90;;